Hlavní strana
METAR-TAF:

METAR-TAF

Letiště :

Kuvajt, Kuvajt

zeměpisná šířka: 29-13N, zeměpisná délka: 047-59E, výška: 55 m

Aktuální stav počasí

Zpráva byla vytvořena před 9 minutami, v 19:00 UTC
Západní vítr 4 kt
Teplota 34°C
Vlhkost vzduchu 12%
Tlak 999 hPa
Viditelnost 10 km a více
Žádná oblačnost pod 1500 m, nevyskytují se cumulonimby.

METAR: OKBK 151900Z 28004KT CAVOK 34/01 Q0999 NOSIG

Čas: 22:09 (19:09 UTC)

Předpověď počasí

Zpráva byla vytvořena před 2 hodinami a 24 minutami, v 16:45 UTC
Předpověď platná od 15 v 18 UTC do 16 v 24 UTC
Severoseverozápadní vítr 12 kt
Viditelnost: 7000 m
Jasno
Dočasný
od 15 v 18 UTC do 16 v 03 UTC
vítr z různých směrů 3 kt

TAF: OKBK 151645Z 1518/1624 33012KT 7000 SKC TEMPO 1518/1603 VRB03KT

Stav a předpovědi počasí z více než 4 000 letišť (zprávy METAR a TAF).

Červené a žluté tečky na mapě představují dostupné meteorologické stanice.

Když kurzor umístíte na tečku, zobrazí se název stanice.

Pak kliknutím zobrazíte stav a předpověď počasí.

Chcete-li změnit mapu, kliknutím na zelené tlačítko se znaménkem +mapu přiblížíte, kliknutím na zelené tlačítko se znaménkem – mapu oddálíte a kliknutím na zelené šipky přejdete na sousední mapy.


METAR-TAF: